sensor_id;sensor_type;location;lat;lon;timestamp;temperature;humidity
66271;DHT22;53063;39.614;8.814;2022-12-19T00:00:42;9.00;99.90
66271;DHT22;53063;39.614;8.814;2022-12-19T00:03:08;9.00;99.90
66271;DHT22;53063;39.614;8.814;2022-12-19T00:05:38;9.00;99.90
66271;DHT22;53063;39.614;8.814;2022-12-19T00:08:05;8.80;99.90
66271;DHT22;53063;39.614;8.814;2022-12-19T00:10:31;9.10;99.90
66271;DHT22;53063;39.614;8.814;2022-12-19T00:12:57;9.30;99.90
66271;DHT22;53063;39.614;8.814;2022-12-19T00:15:23;9.20;99.90
66271;DHT22;53063;39.614;8.814;2022-12-19T00:17:49;9.10;99.90
66271;DHT22;53063;39.614;8.814;2022-12-19T00:20:15;9.00;99.90
66271;DHT22;53063;39.614;8.814;2022-12-19T00:22:40;9.10;99.90
66271;DHT22;53063;39.614;8.814;2022-12-19T00:25:07;9.00;99.90
66271;DHT22;53063;39.614;8.814;2022-12-19T00:27:34;9.00;99.90
66271;DHT22;53063;39.614;8.814;2022-12-19T00:30:00;9.00;99.90
66271;DHT22;53063;39.614;8.814;2022-12-19T00:32:26;9.00;99.90
66271;DHT22;53063;39.614;8.814;2022-12-19T00:34:52;9.00;99.90
66271;DHT22;53063;39.614;8.814;2022-12-19T00:37:18;9.00;99.90
66271;DHT22;53063;39.614;8.814;2022-12-19T00:39:44;8.90;99.90
66271;DHT22;53063;39.614;8.814;2022-12-19T00:42:12;8.80;99.90
66271;DHT22;53063;39.614;8.814;2022-12-19T00:44:38;8.70;99.90
66271;DHT22;53063;39.614;8.814;2022-12-19T00:47:04;8.60;99.90
66271;DHT22;53063;39.614;8.814;2022-12-19T00:49:30;8.40;99.90
66271;DHT22;53063;39.614;8.814;2022-12-19T00:51:56;8.40;99.90
66271;DHT22;53063;39.614;8.814;2022-12-19T00:54:24;8.40;99.90
66271;DHT22;53063;39.614;8.814;2022-12-19T00:56:50;8.40;99.90
66271;DHT22;53063;39.614;8.814;2022-12-19T00:59:16;8.40;99.90
66271;DHT22;53063;39.614;8.814;2022-12-19T01:01:42;8.60;99.90
66271;DHT22;53063;39.614;8.814;2022-12-19T01:04:11;8.60;99.90
66271;DHT22;53063;39.614;8.814;2022-12-19T01:06:41;8.70;99.90
66271;DHT22;53063;39.614;8.814;2022-12-19T01:09:07;8.50;99.90
66271;DHT22;53063;39.614;8.814;2022-12-19T01:11:33;8.40;99.90
66271;DHT22;53063;39.614;8.814;2022-12-19T01:14:18;8.40;99.90
66271;DHT22;53063;39.614;8.814;2022-12-19T01:16:44;8.40;99.90
66271;DHT22;53063;39.614;8.814;2022-12-19T01:19:10;8.30;99.90
66271;DHT22;53063;39.614;8.814;2022-12-19T01:21:36;8.20;99.90
66271;DHT22;53063;39.614;8.814;2022-12-19T01:24:02;8.20;99.90
66271;DHT22;53063;39.614;8.814;2022-12-19T01:26:29;8.30;99.90
66271;DHT22;53063;39.614;8.814;2022-12-19T01:28:55;8.30;99.90
66271;DHT22;53063;39.614;8.814;2022-12-19T01:31:21;8.30;99.90
66271;DHT22;53063;39.614;8.814;2022-12-19T01:33:47;8.30;99.90
66271;DHT22;53063;39.614;8.814;2022-12-19T01:36:14;8.30;99.90
66271;DHT22;53063;39.614;8.814;2022-12-19T01:38:40;8.30;99.90
66271;DHT22;53063;39.614;8.814;2022-12-19T01:41:06;8.30;99.90
66271;DHT22;53063;39.614;8.814;2022-12-19T01:43:54;8.30;99.90
66271;DHT22;53063;39.614;8.814;2022-12-19T01:46:50;8.20;99.90
66271;DHT22;53063;39.614;8.814;2022-12-19T01:49:32;8.20;99.90
66271;DHT22;53063;39.614;8.814;2022-12-19T01:52:09;8.30;99.90
66271;DHT22;53063;39.614;8.814;2022-12-19T01:54:37;8.40;99.90
66271;DHT22;53063;39.614;8.814;2022-12-19T01:57:10;8.40;99.90
66271;DHT22;53063;39.614;8.814;2022-12-19T01:59:43;8.30;99.90
66271;DHT22;53063;39.614;8.814;2022-12-19T02:02:33;8.40;99.90
66271;DHT22;53063;39.614;8.814;2022-12-19T02:05:00;8.50;99.90
66271;DHT22;53063;39.614;8.814;2022-12-19T02:07:28;8.40;99.90
66271;DHT22;53063;39.614;8.814;2022-12-19T02:09:55;8.50;99.90
66271;DHT22;53063;39.614;8.814;2022-12-19T02:12:23;8.60;99.90
66271;DHT22;53063;39.614;8.814;2022-12-19T02:14:50;8.70;99.90
66271;DHT22;53063;39.614;8.814;2022-12-19T02:17:47;8.80;99.90
66271;DHT22;53063;39.614;8.814;2022-12-19T02:20:23;8.60;99.90
66271;DHT22;53063;39.614;8.814;2022-12-19T02:29:00;8.30;99.90
66271;DHT22;53063;39.614;8.814;2022-12-19T02:31:47;8.20;99.90
66271;DHT22;53063;39.614;8.814;2022-12-19T02:37:16;8.10;99.90
66271;DHT22;53063;39.614;8.814;2022-12-19T02:39:52;8.10;99.90
66271;DHT22;53063;39.614;8.814;2022-12-19T02:42:26;8.20;99.90
66271;DHT22;53063;39.614;8.814;2022-12-19T02:44:53;8.20;99.90
66271;DHT22;53063;39.614;8.814;2022-12-19T02:47:21;8.20;99.90
66271;DHT22;53063;39.614;8.814;2022-12-19T02:49:47;8.00;99.90
66271;DHT22;53063;39.614;8.814;2022-12-19T02:54:52;8.00;99.90
66271;DHT22;53063;39.614;8.814;2022-12-19T03:00:24;8.10;99.90
66271;DHT22;53063;39.614;8.814;2022-12-19T03:03:09;8.10;99.90
66271;DHT22;53063;39.614;8.814;2022-12-19T03:08:46;7.70;99.90
66271;DHT22;53063;39.614;8.814;2022-12-19T03:11:11;7.50;99.90
66271;DHT22;53063;39.614;8.814;2022-12-19T03:14:15;7.50;99.90
66271;DHT22;53063;39.614;8.814;2022-12-19T03:16:35;7.40;99.90
66271;DHT22;53063;39.614;8.814;2022-12-19T03:19:02;7.50;99.90
66271;DHT22;53063;39.614;8.814;2022-12-19T03:21:36;7.50;99.90
66271;DHT22;53063;39.614;8.814;2022-12-19T03:24:04;7.70;99.90
66271;DHT22;53063;39.614;8.814;2022-12-19T03:27:15;7.80;99.90
66271;DHT22;53063;39.614;8.814;2022-12-19T03:29:33;7.80;99.90
66271;DHT22;53063;39.614;8.814;2022-12-19T03:32:02;7.50;99.90
66271;DHT22;53063;39.614;8.814;2022-12-19T03:34:52;7.50;99.90
66271;DHT22;53063;39.614;8.814;2022-12-19T03:37:23;7.70;99.90
66271;DHT22;53063;39.614;8.814;2022-12-19T03:39:56;7.70;99.90
66271;DHT22;53063;39.614;8.814;2022-12-19T03:42:25;7.60;99.90
66271;DHT22;53063;39.614;8.814;2022-12-19T03:45:14;7.60;99.90
66271;DHT22;53063;39.614;8.814;2022-12-19T03:47:56;7.60;99.90
66271;DHT22;53063;39.614;8.814;2022-12-19T03:50:24;7.80;99.90
66271;DHT22;53063;39.614;8.814;2022-12-19T03:53:06;7.80;99.90
66271;DHT22;53063;39.614;8.814;2022-12-19T03:55:40;7.80;99.90
66271;DHT22;53063;39.614;8.814;2022-12-19T03:58:14;7.80;99.90
66271;DHT22;53063;39.614;8.814;2022-12-19T04:00:44;7.80;99.90
66271;DHT22;53063;39.614;8.814;2022-12-19T04:03:12;8.00;99.90
66271;DHT22;53063;39.614;8.814;2022-12-19T04:05:41;7.90;99.90
66271;DHT22;53063;39.614;8.814;2022-12-19T04:08:08;7.80;99.90
66271;DHT22;53063;39.614;8.814;2022-12-19T04:11:00;7.80;99.90
66271;DHT22;53063;39.614;8.814;2022-12-19T04:13:48;7.80;99.90
66271;DHT22;53063;39.614;8.814;2022-12-19T04:16:42;7.80;99.90
66271;DHT22;53063;39.614;8.814;2022-12-19T04:22:09;7.80;99.90
66271;DHT22;53063;39.614;8.814;2022-12-19T04:24:38;7.80;99.90
66271;DHT22;53063;39.614;8.814;2022-12-19T04:27:05;7.90;99.90
66271;DHT22;53063;39.614;8.814;2022-12-19T04:29:34;7.70;99.90
66271;DHT22;53063;39.614;8.814;2022-12-19T04:32:02;7.60;99.90
66271;DHT22;53063;39.614;8.814;2022-12-19T04:34:32;7.70;99.90
66271;DHT22;53063;39.614;8.814;2022-12-19T04:37:01;7.70;99.90
66271;DHT22;53063;39.614;8.814;2022-12-19T04:39:28;7.70;99.90
66271;DHT22;53063;39.614;8.814;2022-12-19T04:41:54;7.70;99.90
66271;DHT22;53063;39.614;8.814;2022-12-19T04:44:20;7.70;99.90
66271;DHT22;53063;39.614;8.814;2022-12-19T04:46:46;7.70;99.90
66271;DHT22;53063;39.614;8.814;2022-12-19T04:49:12;7.50;99.90
66271;DHT22;53063;39.614;8.814;2022-12-19T04:51:37;7.60;99.90
66271;DHT22;53063;39.614;8.814;2022-12-19T04:54:03;7.60;99.90
66271;DHT22;53063;39.614;8.814;2022-12-19T04:56:29;7.60;99.90
66271;DHT22;53063;39.614;8.814;2022-12-19T04:58:59;7.60;99.90
66271;DHT22;53063;39.614;8.814;2022-12-19T05:01:25;7.50;99.90
66271;DHT22;53063;39.614;8.814;2022-12-19T05:03:51;7.60;99.90
66271;DHT22;53063;39.614;8.814;2022-12-19T05:06:18;7.60;99.90
66271;DHT22;53063;39.614;8.814;2022-12-19T05:08:44;7.60;99.90
66271;DHT22;53063;39.614;8.814;2022-12-19T05:11:12;7.60;99.90
66271;DHT22;53063;39.614;8.814;2022-12-19T05:13:38;7.60;99.90
66271;DHT22;53063;39.614;8.814;2022-12-19T05:16:07;7.60;99.90
66271;DHT22;53063;39.614;8.814;2022-12-19T05:18:33;7.70;99.90
66271;DHT22;53063;39.614;8.814;2022-12-19T05:21:00;7.90;99.90
66271;DHT22;53063;39.614;8.814;2022-12-19T05:23:26;7.70;99.90
66271;DHT22;53063;39.614;8.814;2022-12-19T05:25:52;7.60;99.90
66271;DHT22;53063;39.614;8.814;2022-12-19T05:28:21;7.60;99.90
66271;DHT22;53063;39.614;8.814;2022-12-19T05:30:47;7.60;99.90
66271;DHT22;53063;39.614;8.814;2022-12-19T05:33:13;7.50;99.90
66271;DHT22;53063;39.614;8.814;2022-12-19T05:35:39;7.50;99.90
66271;DHT22;53063;39.614;8.814;2022-12-19T05:38:05;7.50;99.90
66271;DHT22;53063;39.614;8.814;2022-12-19T05:40:31;7.40;99.90
66271;DHT22;53063;39.614;8.814;2022-12-19T05:42:57;7.60;99.90
66271;DHT22;53063;39.614;8.814;2022-12-19T05:45:23;7.60;99.90
66271;DHT22;53063;39.614;8.814;2022-12-19T05:47:49;7.50;99.90
66271;DHT22;53063;39.614;8.814;2022-12-19T05:50:16;7.50;99.90
66271;DHT22;53063;39.614;8.814;2022-12-19T05:52:50;7.60;99.90
66271;DHT22;53063;39.614;8.814;2022-12-19T05:55:16;7.70;99.90
66271;DHT22;53063;39.614;8.814;2022-12-19T05:57:42;7.80;99.90
66271;DHT22;53063;39.614;8.814;2022-12-19T06:00:08;7.80;99.90
66271;DHT22;53063;39.614;8.814;2022-12-19T06:02:38;7.80;99.90
66271;DHT22;53063;39.614;8.814;2022-12-19T06:05:04;7.90;99.90
66271;DHT22;53063;39.614;8.814;2022-12-19T06:07:30;7.80;99.90
66271;DHT22;53063;39.614;8.814;2022-12-19T06:09:56;7.70;99.90
66271;DHT22;53063;39.614;8.814;2022-12-19T06:12:22;7.70;99.90
66271;DHT22;53063;39.614;8.814;2022-12-19T06:14:48;7.60;99.90
66271;DHT22;53063;39.614;8.814;2022-12-19T06:17:14;7.50;99.90
66271;DHT22;53063;39.614;8.814;2022-12-19T06:19:40;7.60;99.90
66271;DHT22;53063;39.614;8.814;2022-12-19T06:22:06;7.70;99.90
66271;DHT22;53063;39.614;8.814;2022-12-19T06:24:31;7.60;99.90
66271;DHT22;53063;39.614;8.814;2022-12-19T06:26:57;7.50;99.90
66271;DHT22;53063;39.614;8.814;2022-12-19T06:29:23;7.40;99.90
66271;DHT22;53063;39.614;8.814;2022-12-19T06:31:49;7.40;99.90
66271;DHT22;53063;39.614;8.814;2022-12-19T06:34:15;7.40;99.90
66271;DHT22;53063;39.614;8.814;2022-12-19T06:36:41;7.30;99.90
66271;DHT22;53063;39.614;8.814;2022-12-19T06:39:08;7.20;99.90
66271;DHT22;53063;39.614;8.814;2022-12-19T06:41:35;7.10;99.90
66271;DHT22;53063;39.614;8.814;2022-12-19T06:44:19;7.20;99.90
66271;DHT22;53063;39.614;8.814;2022-12-19T06:46:45;7.20;99.90
66271;DHT22;53063;39.614;8.814;2022-12-19T06:49:11;7.30;99.90
66271;DHT22;53063;39.614;8.814;2022-12-19T06:51:37;7.20;99.90
66271;DHT22;53063;39.614;8.814;2022-12-19T06:54:03;7.10;99.90
66271;DHT22;53063;39.614;8.814;2022-12-19T06:56:34;7.10;99.90
66271;DHT22;53063;39.614;8.814;2022-12-19T06:59:00;6.90;99.90
66271;DHT22;53063;39.614;8.814;2022-12-19T07:04:08;6.70;99.90
66271;DHT22;53063;39.614;8.814;2022-12-19T07:06:35;6.70;99.90
66271;DHT22;53063;39.614;8.814;2022-12-19T07:09:01;6.60;99.90
66271;DHT22;53063;39.614;8.814;2022-12-19T07:11:27;6.60;99.90
66271;DHT22;53063;39.614;8.814;2022-12-19T07:13:53;6.70;99.90
66271;DHT22;53063;39.614;8.814;2022-12-19T07:16:19;6.80;99.90
66271;DHT22;53063;39.614;8.814;2022-12-19T07:18:44;7.10;99.90
66271;DHT22;53063;39.614;8.814;2022-12-19T07:21:10;7.00;99.90
66271;DHT22;53063;39.614;8.814;2022-12-19T07:23:36;7.00;99.90
66271;DHT22;53063;39.614;8.814;2022-12-19T07:26:03;7.10;99.90
66271;DHT22;53063;39.614;8.814;2022-12-19T07:28:29;7.30;99.90
66271;DHT22;53063;39.614;8.814;2022-12-19T07:30:55;7.50;99.90
66271;DHT22;53063;39.614;8.814;2022-12-19T07:33:21;7.60;99.90
66271;DHT22;53063;39.614;8.814;2022-12-19T07:35:47;7.60;99.90
66271;DHT22;53063;39.614;8.814;2022-12-19T07:38:12;7.70;99.90
66271;DHT22;53063;39.614;8.814;2022-12-19T07:40:38;7.90;99.90
66271;DHT22;53063;39.614;8.814;2022-12-19T07:43:05;8.10;99.90
66271;DHT22;53063;39.614;8.814;2022-12-19T07:45:32;8.30;99.90
66271;DHT22;53063;39.614;8.814;2022-12-19T07:48:02;8.50;99.90
66271;DHT22;53063;39.614;8.814;2022-12-19T07:50:28;9.10;99.90
66271;DHT22;53063;39.614;8.814;2022-12-19T07:52:56;11.10;99.90
66271;DHT22;53063;39.614;8.814;2022-12-19T07:55:23;12.70;99.90
66271;DHT22;53063;39.614;8.814;2022-12-19T07:57:49;14.00;99.90
66271;DHT22;53063;39.614;8.814;2022-12-19T08:00:15;14.90;99.90
66271;DHT22;53063;39.614;8.814;2022-12-19T08:02:41;15.80;99.90
66271;DHT22;53063;39.614;8.814;2022-12-19T08:05:08;16.40;94.40
66271;DHT22;53063;39.614;8.814;2022-12-19T08:07:34;17.20;89.60
66271;DHT22;53063;39.614;8.814;2022-12-19T08:09:59;17.00;86.80
66271;DHT22;53063;39.614;8.814;2022-12-19T08:12:25;17.40;88.10
66271;DHT22;53063;39.614;8.814;2022-12-19T08:14:51;17.90;84.30
66271;DHT22;53063;39.614;8.814;2022-12-19T08:17:17;17.90;82.60
66271;DHT22;53063;39.614;8.814;2022-12-19T08:19:43;18.00;82.70
66271;DHT22;53063;39.614;8.814;2022-12-19T08:22:09;17.80;83.20
66271;DHT22;53063;39.614;8.814;2022-12-19T08:24:35;18.10;83.00
66271;DHT22;53063;39.614;8.814;2022-12-19T08:27:01;18.50;81.40
66271;DHT22;53063;39.614;8.814;2022-12-19T08:29:27;18.80;80.10
66271;DHT22;53063;39.614;8.814;2022-12-19T08:31:53;19.50;78.20
66271;DHT22;53063;39.614;8.814;2022-12-19T08:34:19;20.00;76.10
66271;DHT22;53063;39.614;8.814;2022-12-19T08:36:44;20.10;75.00
66271;DHT22;53063;39.614;8.814;2022-12-19T08:39:10;20.00;74.00
66271;DHT22;53063;39.614;8.814;2022-12-19T08:41:36;20.30;73.40
66271;DHT22;53063;39.614;8.814;2022-12-19T08:44:02;20.20;72.30
66271;DHT22;53063;39.614;8.814;2022-12-19T08:46:28;20.40;73.00
66271;DHT22;53063;39.614;8.814;2022-12-19T08:48:57;20.90;71.00
66271;DHT22;53063;39.614;8.814;2022-12-19T08:51:23;20.80;71.20
66271;DHT22;53063;39.614;8.814;2022-12-19T08:53:49;20.70;71.40
66271;DHT22;53063;39.614;8.814;2022-12-19T08:56:20;20.60;72.00
66271;DHT22;53063;39.614;8.814;2022-12-19T08:58:46;20.00;71.20
66271;DHT22;53063;39.614;8.814;2022-12-19T09:01:15;19.30;75.20
66271;DHT22;53063;39.614;8.814;2022-12-19T09:03:43;19.70;73.30
66271;DHT22;53063;39.614;8.814;2022-12-19T09:06:10;20.90;70.50
66271;DHT22;53063;39.614;8.814;2022-12-19T09:08:37;21.80;66.10
66271;DHT22;53063;39.614;8.814;2022-12-19T09:11:06;22.00;62.90
66271;DHT22;53063;39.614;8.814;2022-12-19T09:13:33;22.30;62.50
66271;DHT22;53063;39.614;8.814;2022-12-19T09:16:17;21.70;63.30
66271;DHT22;53063;39.614;8.814;2022-12-19T09:18:44;21.80;63.10
66271;DHT22;53063;39.614;8.814;2022-12-19T09:21:11;21.80;61.90
66271;DHT22;53063;39.614;8.814;2022-12-19T09:23:39;21.80;63.70
66271;DHT22;53063;39.614;8.814;2022-12-19T09:26:07;21.90;63.40
66271;DHT22;53063;39.614;8.814;2022-12-19T09:28:34;22.40;60.00
66271;DHT22;53063;39.614;8.814;2022-12-19T09:31:03;22.80;61.20
66271;DHT22;53063;39.614;8.814;2022-12-19T09:33:31;24.80;58.30
66271;DHT22;53063;39.614;8.814;2022-12-19T09:35:58;24.20;55.70
66271;DHT22;53063;39.614;8.814;2022-12-19T09:38:25;23.50;57.70
66271;DHT22;53063;39.614;8.814;2022-12-19T09:48:25;21.70;64.20
66271;DHT22;53063;39.614;8.814;2022-12-19T09:51:00;23.70;61.70
66271;DHT22;53063;39.614;8.814;2022-12-19T09:56:19;22.70;62.90
66271;DHT22;53063;39.614;8.814;2022-12-19T09:58:50;22.80;61.90
66271;DHT22;53063;39.614;8.814;2022-12-19T10:01:22;23.20;60.00
66271;DHT22;53063;39.614;8.814;2022-12-19T10:04:18;22.90;60.90
66271;DHT22;53063;39.614;8.814;2022-12-19T10:06:43;23.20;59.60
66271;DHT22;53063;39.614;8.814;2022-12-19T10:09:15;22.70;58.40
66271;DHT22;53063;39.614;8.814;2022-12-19T10:18:03;23.50;56.80
66271;DHT22;53063;39.614;8.814;2022-12-19T10:20:36;24.50;56.80
66271;DHT22;53063;39.614;8.814;2022-12-19T10:23:30;24.20;53.70
66271;DHT22;53063;39.614;8.814;2022-12-19T10:26:19;23.00;57.30
66271;DHT22;53063;39.614;8.814;2022-12-19T10:36:59;25.90;49.40
66271;DHT22;53063;39.614;8.814;2022-12-19T10:42:47;24.40;53.00
66271;DHT22;53063;39.614;8.814;2022-12-19T10:45:18;23.20;55.10
66271;DHT22;53063;39.614;8.814;2022-12-19T10:47:54;23.80;54.80
66271;DHT22;53063;39.614;8.814;2022-12-19T10:50:24;23.90;55.80
66271;DHT22;53063;39.614;8.814;2022-12-19T10:57:58;20.80;67.40
66271;DHT22;53063;39.614;8.814;2022-12-19T11:00:25;20.60;64.40
66271;DHT22;53063;39.614;8.814;2022-12-19T11:03:07;21.70;62.30
66271;DHT22;53063;39.614;8.814;2022-12-19T11:05:54;22.50;63.60
66271;DHT22;53063;39.614;8.814;2022-12-19T11:11:10;24.10;60.20
66271;DHT22;53063;39.614;8.814;2022-12-19T11:16:04;26.30;53.60
66271;DHT22;53063;39.614;8.814;2022-12-19T11:18:48;23.30;56.30
66271;DHT22;53063;39.614;8.814;2022-12-19T11:26:47;18.90;71.90
66271;DHT22;53063;39.614;8.814;2022-12-19T11:29:24;19.40;70.30
66271;DHT22;53063;39.614;8.814;2022-12-19T11:31:59;19.60;72.30
66271;DHT22;53063;39.614;8.814;2022-12-19T11:34:27;18.70;73.40
66271;DHT22;53063;39.614;8.814;2022-12-19T11:37:26;17.40;78.50
66271;DHT22;53063;39.614;8.814;2022-12-19T11:40:01;17.10;81.30
66271;DHT22;53063;39.614;8.814;2022-12-19T11:42:36;17.10;83.30
66271;DHT22;53063;39.614;8.814;2022-12-19T11:45:20;18.20;78.00
66271;DHT22;53063;39.614;8.814;2022-12-19T11:47:58;18.50;75.40
66271;DHT22;53063;39.614;8.814;2022-12-19T11:50:34;18.00;77.00
66271;DHT22;53063;39.614;8.814;2022-12-19T11:56:13;17.90;80.50
66271;DHT22;53063;39.614;8.814;2022-12-19T11:58:39;18.00;78.30
66271;DHT22;53063;39.614;8.814;2022-12-19T12:06:52;18.80;74.50
66271;DHT22;53063;39.614;8.814;2022-12-19T12:11:53;17.80;74.80
66271;DHT22;53063;39.614;8.814;2022-12-19T12:15:02;17.40;77.40
66271;DHT22;53063;39.614;8.814;2022-12-19T12:31:37;18.00;73.60
66271;DHT22;53063;39.614;8.814;2022-12-19T12:39:56;17.90;70.90
66271;DHT22;53063;39.614;8.814;2022-12-19T12:42:52;18.00;73.60
66271;DHT22;53063;39.614;8.814;2022-12-19T12:45:47;18.20;70.70
66271;DHT22;53063;39.614;8.814;2022-12-19T12:48:33;18.00;70.60
66271;DHT22;53063;39.614;8.814;2022-12-19T12:51:02;18.30;72.90
66271;DHT22;53063;39.614;8.814;2022-12-19T12:53:33;18.60;71.90
66271;DHT22;53063;39.614;8.814;2022-12-19T12:56:00;18.80;72.40
66271;DHT22;53063;39.614;8.814;2022-12-19T13:04:05;19.00;70.40
66271;DHT22;53063;39.614;8.814;2022-12-19T13:06:34;18.40;69.90
66271;DHT22;53063;39.614;8.814;2022-12-19T13:09:23;18.50;69.20
66271;DHT22;53063;39.614;8.814;2022-12-19T13:12:02;18.60;67.80
66271;DHT22;53063;39.614;8.814;2022-12-19T13:22:40;18.20;66.60
66271;DHT22;53063;39.614;8.814;2022-12-19T13:36:49;18.30;67.00
66271;DHT22;53063;39.614;8.814;2022-12-19T13:39:31;18.30;66.70
66271;DHT22;53063;39.614;8.814;2022-12-19T13:42:19;18.60;65.50
66271;DHT22;53063;39.614;8.814;2022-12-19T13:45:10;18.90;65.80
66271;DHT22;53063;39.614;8.814;2022-12-19T13:47:41;18.80;62.90
66271;DHT22;53063;39.614;8.814;2022-12-19T13:52:50;23.10;57.70
66271;DHT22;53063;39.614;8.814;2022-12-19T13:55:17;24.80;48.30
66271;DHT22;53063;39.614;8.814;2022-12-19T13:57:46;23.50;50.60
66271;DHT22;53063;39.614;8.814;2022-12-19T14:00:19;23.30;51.50
66271;DHT22;53063;39.614;8.814;2022-12-19T14:02:51;22.50;51.80
66271;DHT22;53063;39.614;8.814;2022-12-19T14:05:22;22.10;51.90
66271;DHT22;53063;39.614;8.814;2022-12-19T14:07:50;22.50;51.20
66271;DHT22;53063;39.614;8.814;2022-12-19T14:10:24;22.60;52.50
66271;DHT22;53063;39.614;8.814;2022-12-19T14:12:53;21.70;51.50
66271;DHT22;53063;39.614;8.814;2022-12-19T14:15:42;21.40;52.30
66271;DHT22;53063;39.614;8.814;2022-12-19T14:18:20;21.80;51.70
66271;DHT22;53063;39.614;8.814;2022-12-19T14:20:47;21.10;52.90
66271;DHT22;53063;39.614;8.814;2022-12-19T14:23:14;20.70;55.60
66271;DHT22;53063;39.614;8.814;2022-12-19T14:25:52;21.40;56.70
66271;DHT22;53063;39.614;8.814;2022-12-19T14:28:33;21.50;56.30
66271;DHT22;53063;39.614;8.814;2022-12-19T14:31:06;18.70;60.30
66271;DHT22;53063;39.614;8.814;2022-12-19T14:33:39;17.50;66.70
66271;DHT22;53063;39.614;8.814;2022-12-19T14:36:07;17.30;70.10
66271;DHT22;53063;39.614;8.814;2022-12-19T14:38:33;17.00;68.80
66271;DHT22;53063;39.614;8.814;2022-12-19T14:41:01;16.70;69.70
66271;DHT22;53063;39.614;8.814;2022-12-19T14:43:29;16.50;70.40
66271;DHT22;53063;39.614;8.814;2022-12-19T14:48:52;16.40;73.80
66271;DHT22;53063;39.614;8.814;2022-12-19T15:01:54;16.10;77.60
66271;DHT22;53063;39.614;8.814;2022-12-19T15:04:23;16.00;77.50
66271;DHT22;53063;39.614;8.814;2022-12-19T15:06:54;16.00;77.90
66271;DHT22;53063;39.614;8.814;2022-12-19T15:09:21;15.90;77.80
66271;DHT22;53063;39.614;8.814;2022-12-19T15:11:53;15.90;79.20
66271;DHT22;53063;39.614;8.814;2022-12-19T15:14:43;15.90;78.30
66271;DHT22;53063;39.614;8.814;2022-12-19T15:17:22;15.70;78.50
66271;DHT22;53063;39.614;8.814;2022-12-19T15:19:49;15.60;79.00
66271;DHT22;53063;39.614;8.814;2022-12-19T15:22:16;15.70;79.30
66271;DHT22;53063;39.614;8.814;2022-12-19T15:24:42;15.60;79.30
66271;DHT22;53063;39.614;8.814;2022-12-19T15:27:13;15.60;80.30
66271;DHT22;53063;39.614;8.814;2022-12-19T15:29:41;15.60;81.20
66271;DHT22;53063;39.614;8.814;2022-12-19T15:32:13;15.60;83.70
66271;DHT22;53063;39.614;8.814;2022-12-19T15:34:39;15.30;85.90
66271;DHT22;53063;39.614;8.814;2022-12-19T15:37:15;15.20;87.90
66271;DHT22;53063;39.614;8.814;2022-12-19T15:39:42;15.10;90.00
66271;DHT22;53063;39.614;8.814;2022-12-19T15:42:20;14.90;91.70
66271;DHT22;53063;39.614;8.814;2022-12-19T15:44:48;14.80;93.60
66271;DHT22;53063;39.614;8.814;2022-12-19T15:49:50;14.60;96.40
66271;DHT22;53063;39.614;8.814;2022-12-19T15:52:18;14.60;97.20
66271;DHT22;53063;39.614;8.814;2022-12-19T15:54:45;14.50;98.10
66271;DHT22;53063;39.614;8.814;2022-12-19T15:57:36;14.20;99.60
66271;DHT22;53063;39.614;8.814;2022-12-19T16:00:14;14.10;99.90
66271;DHT22;53063;39.614;8.814;2022-12-19T16:02:41;14.10;99.90
66271;DHT22;53063;39.614;8.814;2022-12-19T16:05:11;14.20;99.90
66271;DHT22;53063;39.614;8.814;2022-12-19T16:07:37;14.20;99.90
66271;DHT22;53063;39.614;8.814;2022-12-19T16:10:03;14.10;99.90
66271;DHT22;53063;39.614;8.814;2022-12-19T16:12:33;14.10;99.90
66271;DHT22;53063;39.614;8.814;2022-12-19T16:15:01;14.00;99.90
66271;DHT22;53063;39.614;8.814;2022-12-19T16:17:31;13.80;99.90
66271;DHT22;53063;39.614;8.814;2022-12-19T16:19:57;13.70;99.90
66271;DHT22;53063;39.614;8.814;2022-12-19T16:22:26;13.50;99.90
66271;DHT22;53063;39.614;8.814;2022-12-19T16:24:52;13.40;99.90
66271;DHT22;53063;39.614;8.814;2022-12-19T16:29:47;13.40;99.90
66271;DHT22;53063;39.614;8.814;2022-12-19T16:32:13;13.20;99.90
66271;DHT22;53063;39.614;8.814;2022-12-19T16:34:39;13.20;99.90
66271;DHT22;53063;39.614;8.814;2022-12-19T16:37:05;13.50;99.90
66271;DHT22;53063;39.614;8.814;2022-12-19T16:39:31;13.40;99.90
66271;DHT22;53063;39.614;8.814;2022-12-19T16:41:57;13.10;99.90
66271;DHT22;53063;39.614;8.814;2022-12-19T16:44:23;13.10;99.90
66271;DHT22;53063;39.614;8.814;2022-12-19T16:46:50;13.10;99.90
66271;DHT22;53063;39.614;8.814;2022-12-19T16:49:19;13.10;99.90
66271;DHT22;53063;39.614;8.814;2022-12-19T16:51:47;13.00;99.90
66271;DHT22;53063;39.614;8.814;2022-12-19T16:54:14;12.90;99.90
66271;DHT22;53063;39.614;8.814;2022-12-19T16:56:41;12.70;99.90
66271;DHT22;53063;39.614;8.814;2022-12-19T17:01:42;12.70;99.90
66271;DHT22;53063;39.614;8.814;2022-12-19T17:04:21;12.90;99.90
66271;DHT22;53063;39.614;8.814;2022-12-19T17:06:49;13.10;99.90
66271;DHT22;53063;39.614;8.814;2022-12-19T17:09:17;13.00;99.90
66271;DHT22;53063;39.614;8.814;2022-12-19T17:11:46;13.00;99.90
66271;DHT22;53063;39.614;8.814;2022-12-19T17:14:23;13.10;99.90
66271;DHT22;53063;39.614;8.814;2022-12-19T17:16:54;13.10;99.90
66271;DHT22;53063;39.614;8.814;2022-12-19T17:19:22;13.10;99.90
66271;DHT22;53063;39.614;8.814;2022-12-19T17:21:50;13.00;99.90
66271;DHT22;53063;39.614;8.814;2022-12-19T17:24:16;13.00;99.90
66271;DHT22;53063;39.614;8.814;2022-12-19T17:26:43;13.00;99.90
66271;DHT22;53063;39.614;8.814;2022-12-19T17:29:10;12.90;99.90
66271;DHT22;53063;39.614;8.814;2022-12-19T17:31:37;12.70;99.90
66271;DHT22;53063;39.614;8.814;2022-12-19T17:34:28;12.50;99.90
66271;DHT22;53063;39.614;8.814;2022-12-19T17:36:59;12.20;99.90
66271;DHT22;53063;39.614;8.814;2022-12-19T17:39:28;12.10;99.90
66271;DHT22;53063;39.614;8.814;2022-12-19T17:41:56;12.10;99.90
66271;DHT22;53063;39.614;8.814;2022-12-19T17:44:22;12.10;99.90
66271;DHT22;53063;39.614;8.814;2022-12-19T17:46:48;12.10;99.90
66271;DHT22;53063;39.614;8.814;2022-12-19T17:49:23;12.00;99.90
66271;DHT22;53063;39.614;8.814;2022-12-19T17:51:51;12.00;99.90
66271;DHT22;53063;39.614;8.814;2022-12-19T17:54:19;12.00;99.90
66271;DHT22;53063;39.614;8.814;2022-12-19T17:56:46;12.00;99.90
66271;DHT22;53063;39.614;8.814;2022-12-19T17:59:12;12.00;99.90
66271;DHT22;53063;39.614;8.814;2022-12-19T18:01:38;12.10;99.90
66271;DHT22;53063;39.614;8.814;2022-12-19T18:04:16;12.00;99.90
66271;DHT22;53063;39.614;8.814;2022-12-19T18:06:43;11.80;99.90
66271;DHT22;53063;39.614;8.814;2022-12-19T18:09:20;12.00;99.90
66271;DHT22;53063;39.614;8.814;2022-12-19T18:11:47;12.20;99.90
66271;DHT22;53063;39.614;8.814;2022-12-19T18:14:14;11.90;99.90
66271;DHT22;53063;39.614;8.814;2022-12-19T18:16:41;11.50;99.90
66271;DHT22;53063;39.614;8.814;2022-12-19T18:19:18;11.60;99.90
66271;DHT22;53063;39.614;8.814;2022-12-19T18:21:44;11.80;99.90
66271;DHT22;53063;39.614;8.814;2022-12-19T18:24:12;11.80;99.90